createdAt,value
2022-08-12T00:01:05.207Z,0.90
2022-08-12T00:03:51.582Z,0.90
2022-08-12T00:06:40.200Z,1.38
2022-08-12T00:09:26.735Z,1.20
2022-08-12T00:12:12.905Z,1.30
2022-08-12T00:14:58.674Z,0.90
2022-08-12T00:17:44.111Z,0.90
2022-08-12T00:20:29.995Z,1.65
2022-08-12T00:23:16.497Z,1.80
2022-08-12T00:26:20.636Z,1.20
2022-08-12T00:29:12.404Z,1.00
2022-08-12T00:32:00.029Z,0.90
2022-08-12T00:34:47.756Z,1.15
2022-08-12T00:37:35.386Z,1.08
2022-08-12T00:40:23.935Z,0.90
2022-08-12T00:42:51.654Z,1.10
2022-08-12T00:45:19.654Z,1.27
2022-08-12T00:47:46.982Z,0.80
2022-08-12T00:50:19.992Z,0.90
2022-08-12T00:52:50.591Z,1.10
2022-08-12T00:55:18.699Z,1.00
2022-08-12T00:57:48.777Z,1.10
2022-08-12T01:00:23.621Z,1.15
2022-08-12T01:02:54.331Z,1.08
2022-08-12T01:05:44.060Z,0.73
2022-08-12T01:08:29.417Z,1.10
2022-08-12T01:11:16.117Z,1.05
2022-08-12T01:13:50.262Z,1.25
2022-08-12T01:16:22.873Z,1.23
2022-08-12T01:18:52.475Z,1.23
2022-08-12T01:21:34.644Z,1.27
2022-08-12T01:24:29.865Z,0.75
2022-08-12T01:26:59.861Z,0.90
2022-08-12T01:29:33.010Z,0.93
2022-08-12T01:32:05.715Z,0.90
2022-08-12T01:34:37.756Z,0.60
2022-08-12T01:37:08.066Z,0.80
2022-08-12T01:40:35.493Z,0.57
2022-08-12T01:42:48.076Z,0.70
2022-08-12T01:45:17.758Z,0.90
2022-08-12T01:47:53.927Z,0.80
2022-08-12T01:51:00.442Z,0.80
2022-08-12T01:53:53.191Z,0.90
2022-08-12T01:56:24.987Z,0.70
2022-08-12T01:59:15.727Z,0.75
2022-08-12T02:01:45.918Z,0.70
2022-08-12T02:05:05.079Z,0.70
2022-08-12T02:08:14.520Z,1.23
2022-08-12T02:11:17.639Z,0.90
2022-08-12T02:14:06.538Z,0.90
2022-08-12T02:16:54.309Z,0.75
2022-08-12T02:19:57.034Z,0.73
2022-08-12T02:22:39.158Z,0.95
2022-08-12T02:25:15.817Z,0.70
2022-08-12T02:27:47.691Z,0.70
2022-08-12T02:30:22.437Z,0.70
2022-08-12T02:32:51.784Z,0.95
2022-08-12T02:35:23.758Z,0.80
2022-08-12T02:37:54.259Z,0.82
2022-08-12T02:40:22.798Z,0.75
2022-08-12T02:43:02.613Z,0.77
2022-08-12T02:45:38.399Z,0.73
2022-08-12T02:48:25.030Z,0.90
2022-08-12T02:50:53.566Z,0.82
2022-08-12T02:53:21.702Z,0.80
2022-08-12T02:55:49.538Z,0.73
2022-08-12T02:58:19.779Z,0.70
2022-08-12T03:00:53.089Z,0.80
2022-08-12T03:03:36.991Z,0.70
2022-08-12T03:06:38.288Z,0.98
2022-08-12T03:09:07.051Z,0.70
2022-08-12T03:11:42.787Z,0.82
2022-08-12T03:14:19.082Z,0.70
2022-08-12T03:16:58.485Z,0.90
2022-08-12T03:19:25.963Z,0.70
2022-08-12T03:22:09.456Z,1.33
2022-08-12T03:24:42.744Z,0.80
2022-08-12T03:27:13.336Z,1.05
2022-08-12T03:29:51.524Z,0.85
2022-08-12T03:32:35.021Z,0.90
2022-08-12T03:35:07.591Z,0.90
2022-08-12T03:37:37.249Z,0.88
2022-08-12T03:40:05.353Z,0.85
2022-08-12T03:42:41.217Z,0.80
2022-08-12T03:45:46.438Z,0.98
2022-08-12T03:48:38.497Z,1.50
2022-08-12T03:51:24.555Z,0.93
2022-08-12T03:54:11.503Z,1.13
2022-08-12T03:57:00.666Z,0.90
2022-08-12T03:59:46.178Z,1.10
2022-08-12T04:02:18.204Z,1.20
2022-08-12T04:04:49.328Z,1.10
2022-08-12T04:07:17.149Z,1.02
2022-08-12T04:09:46.562Z,1.10
2022-08-12T04:12:33.312Z,1.10
2022-08-12T04:15:01.479Z,1.05
2022-08-12T04:17:29.230Z,1.25
2022-08-12T04:19:58.175Z,1.10
2022-08-12T04:22:31.059Z,1.27
2022-08-12T04:25:03.042Z,1.05
2022-08-12T04:27:32.392Z,1.17
2022-08-12T04:30:31.655Z,1.60
2022-08-12T04:32:50.820Z,1.15
2022-08-12T04:35:18.488Z,1.30
2022-08-12T04:37:58.675Z,1.30
2022-08-12T04:40:30.823Z,1.38
2022-08-12T04:42:58.968Z,1.30
2022-08-12T04:45:26.193Z,1.20
2022-08-12T04:47:53.317Z,1.40
2022-08-12T04:50:33.870Z,0.93
2022-08-12T04:53:03.498Z,1.27
2022-08-12T04:55:30.531Z,1.20
2022-08-12T04:57:58.045Z,1.50
2022-08-12T05:00:24.924Z,1.95
2022-08-12T05:02:52.550Z,1.50
2022-08-12T05:05:23.223Z,1.50
2022-08-12T05:07:53.920Z,1.50
2022-08-12T05:10:33.370Z,1.40
2022-08-12T05:13:05.703Z,1.75
2022-08-12T05:15:32.688Z,1.30
2022-08-12T05:18:00.083Z,1.60
2022-08-12T05:20:29.492Z,1.73
2022-08-12T05:23:13.063Z,1.55
2022-08-12T05:25:43.513Z,2.00
2022-08-12T05:28:13.270Z,1.63
2022-08-12T05:30:42.817Z,1.38
2022-08-12T05:33:11.894Z,1.38
2022-08-12T05:35:43.272Z,2.03
2022-08-12T05:38:29.773Z,1.83
2022-08-12T05:40:56.988Z,1.73
2022-08-12T05:43:24.589Z,2.03
2022-08-12T05:45:51.560Z,1.95
2022-08-12T05:48:18.891Z,2.53
2022-08-12T05:50:46.303Z,1.92
2022-08-12T05:53:13.989Z,1.90
2022-08-12T05:55:41.106Z,2.08
2022-08-12T05:58:08.351Z,2.17
2022-08-12T06:00:36.410Z,1.50
2022-08-12T06:03:04.930Z,1.83
2022-08-12T06:05:54.558Z,1.52
2022-08-12T06:08:23.897Z,1.77
2022-08-12T06:10:50.868Z,1.85
2022-08-12T06:13:28.588Z,1.63
2022-08-12T06:16:07.630Z,1.75
2022-08-12T06:18:35.437Z,2.05
2022-08-12T06:21:02.542Z,2.15
2022-08-12T06:23:30.576Z,1.83
2022-08-12T06:25:58.688Z,2.22
2022-08-12T06:28:26.553Z,1.83
2022-08-12T06:31:22.313Z,1.83
2022-08-12T06:33:55.237Z,2.30
2022-08-12T06:36:29.975Z,2.25
2022-08-12T06:38:59.519Z,1.90
2022-08-12T06:42:04.843Z,1.90
2022-08-12T06:44:32.892Z,2.10
2022-08-12T06:47:00.174Z,2.03
2022-08-12T06:49:28.878Z,3.03
2022-08-12T06:51:56.828Z,2.00
2022-08-12T06:54:30.778Z,2.38
2022-08-12T06:57:57.499Z,2.22
2022-08-12T06:59:45.134Z,2.30
2022-08-12T07:02:12.816Z,2.20
2022-08-12T07:04:39.851Z,2.28
2022-08-12T07:07:08.912Z,2.28
2022-08-12T07:10:05.527Z,2.13
2022-08-12T07:12:26.607Z,2.22
2022-08-12T07:14:54.739Z,2.40
2022-08-12T07:17:21.720Z,2.85
2022-08-12T07:19:50.210Z,2.10
2022-08-12T07:22:17.016Z,2.20
2022-08-12T07:25:04.124Z,2.47
2022-08-12T07:27:31.275Z,2.53
2022-08-12T07:30:04.138Z,2.90
2022-08-12T07:32:31.960Z,2.88
2022-08-12T07:34:58.820Z,2.45
2022-08-12T07:37:25.647Z,2.25
2022-08-12T07:40:00.556Z,3.30
2022-08-12T07:42:29.634Z,1.92
2022-08-12T07:44:56.999Z,2.47
2022-08-12T07:47:24.551Z,2.13
2022-08-12T07:50:05.435Z,2.70
2022-08-12T07:52:38.661Z,2.45
2022-08-12T07:55:06.825Z,1.80
2022-08-12T07:57:34.032Z,1.98
2022-08-12T08:00:03.781Z,1.95
2022-08-12T08:02:33.931Z,2.20
2022-08-12T08:05:01.012Z,1.83
2022-08-12T08:07:30.788Z,1.98
2022-08-12T08:10:02.414Z,1.73
2022-08-12T08:12:48.792Z,2.55
2022-08-12T08:15:16.379Z,2.35
2022-08-12T08:18:25.588Z,2.08
2022-08-12T08:20:54.883Z,2.22
2022-08-12T08:23:21.801Z,1.80
2022-08-12T08:25:50.242Z,2.08
2022-08-12T08:28:17.403Z,1.85
2022-08-12T08:30:47.967Z,1.92
2022-08-12T08:33:23.612Z,2.15
2022-08-12T08:36:10.826Z,2.00
2022-08-12T08:38:56.004Z,1.70
2022-08-12T08:42:15.459Z,1.93
2022-08-12T08:44:31.537Z,1.42
2022-08-12T08:46:58.715Z,1.95
2022-08-12T08:49:25.967Z,2.55
2022-08-12T08:51:53.078Z,2.05
2022-08-12T08:54:19.971Z,1.40
2022-08-12T08:56:50.155Z,1.27
2022-08-12T08:59:19.542Z,1.70
2022-08-12T09:01:47.945Z,2.08
2022-08-12T09:05:09.197Z,2.20
2022-08-12T09:07:17.343Z,1.67
2022-08-12T09:10:01.920Z,1.90
2022-08-12T09:12:55.179Z,2.17
2022-08-12T09:15:35.694Z,1.35
2022-08-12T09:18:08.469Z,1.80
2022-08-12T09:20:38.846Z,1.40
2022-08-12T09:23:57.142Z,1.48
2022-08-12T09:26:04.415Z,1.40
2022-08-12T09:28:33.684Z,1.30
2022-08-12T09:31:00.717Z,1.10
2022-08-12T09:34:29.146Z,1.10
2022-08-12T09:36:31.016Z,1.10
2022-08-12T09:40:04.170Z,1.45
2022-08-12T09:42:39.028Z,1.52
2022-08-12T09:45:24.684Z,1.10
2022-08-12T09:48:09.588Z,1.08
2022-08-12T09:50:36.835Z,1.08
2022-08-12T09:53:15.528Z,1.10
2022-08-12T09:56:07.360Z,1.20
2022-08-12T09:58:57.507Z,1.08
2022-08-12T10:01:24.549Z,0.95
2022-08-12T10:04:03.348Z,0.90
2022-08-12T10:06:54.181Z,1.05
2022-08-12T10:09:23.271Z,1.27
2022-08-12T10:12:31.606Z,1.27
2022-08-12T10:15:00.972Z,1.05
2022-08-12T10:17:27.893Z,0.88
2022-08-12T10:19:54.694Z,1.63
2022-08-12T10:22:36.751Z,1.02
2022-08-12T10:26:35.547Z,0.95
2022-08-12T10:29:02.821Z,0.98
2022-08-12T10:31:43.550Z,0.90
2022-08-12T10:34:23.651Z,1.00
2022-08-12T10:37:15.620Z,1.10
2022-08-12T10:40:06.281Z,0.98
2022-08-12T10:43:00.692Z,1.67
2022-08-12T10:45:30.412Z,1.00
2022-08-12T10:48:07.297Z,1.00
2022-08-12T10:51:02.097Z,0.85
2022-08-12T10:53:45.758Z,1.15
2022-08-12T10:56:18.609Z,0.95
2022-08-12T10:58:47.069Z,0.77
2022-08-12T11:01:49.361Z,1.20
2022-08-12T11:04:35.880Z,1.00
2022-08-12T11:07:08.177Z,1.25
2022-08-12T11:10:00.937Z,1.00
2022-08-12T11:12:55.505Z,0.93
2022-08-12T11:15:20.792Z,1.00
2022-08-12T11:17:53.699Z,1.08
2022-08-12T11:20:24.176Z,1.67
2022-08-12T11:23:04.008Z,1.02
2022-08-12T11:25:56.044Z,1.20
2022-08-12T11:28:33.184Z,1.30
2022-08-12T11:31:03.467Z,0.85
2022-08-12T11:34:04.286Z,1.10
2022-08-12T11:36:18.155Z,0.80
2022-08-12T11:38:50.925Z,1.40
2022-08-12T11:41:31.600Z,1.25
2022-08-12T11:44:35.321Z,0.70
2022-08-12T11:46:58.184Z,1.25
2022-08-12T11:49:31.768Z,1.45
2022-08-12T11:52:04.048Z,1.20
2022-08-12T11:54:31.796Z,0.95
2022-08-12T11:57:02.521Z,1.08
2022-08-12T12:02:20.593Z,1.33
2022-08-12T12:04:52.962Z,1.40
2022-08-12T12:08:38.800Z,1.10
2022-08-12T12:10:15.284Z,0.95
2022-08-12T12:12:49.729Z,1.00
2022-08-12T12:15:25.315Z,1.88
2022-08-12T12:18:04.365Z,1.13
2022-08-12T12:20:31.859Z,0.82
2022-08-12T12:23:00.138Z,0.98
2022-08-12T12:25:59.584Z,0.90
2022-08-12T12:28:36.677Z,0.93
2022-08-12T12:31:04.228Z,1.20
2022-08-12T12:33:56.750Z,0.98
2022-08-12T12:36:24.052Z,0.88
2022-08-12T12:38:56.653Z,0.90
2022-08-12T12:42:40.596Z,0.88
2022-08-12T12:44:13.311Z,0.90
2022-08-12T12:46:41.932Z,0.75
2022-08-12T12:49:15.200Z,1.40
2022-08-12T12:51:56.410Z,1.20
2022-08-12T12:54:29.297Z,1.17
2022-08-12T12:56:56.213Z,1.55
2022-08-12T12:59:33.703Z,1.00
2022-08-12T13:02:14.215Z,0.90
2022-08-12T13:05:00.253Z,1.75
2022-08-12T13:07:49.404Z,1.05
2022-08-12T13:10:14.075Z,1.27
2022-08-12T13:12:42.409Z,2.20
2022-08-12T13:15:43.607Z,1.65
2022-08-12T13:20:38.222Z,0.80
2022-08-12T13:23:36.067Z,0.80
2022-08-12T13:26:01.886Z,1.17
2022-08-12T13:28:31.053Z,1.00
2022-08-12T13:30:59.720Z,0.80
2022-08-12T13:33:28.550Z,0.85
2022-08-12T13:36:05.795Z,0.95
2022-08-12T13:38:42.899Z,1.40
2022-08-12T13:41:18.546Z,0.80
2022-08-12T13:43:47.270Z,0.70
2022-08-12T13:46:14.898Z,0.80
2022-08-12T13:48:44.859Z,0.70
2022-08-12T13:51:12.616Z,0.80
2022-08-12T13:53:57.605Z,1.10
2022-08-12T13:56:38.931Z,0.60
2022-08-12T13:59:08.821Z,0.85
2022-08-12T14:01:40.414Z,0.73
2022-08-12T14:04:11.540Z,0.98
2022-08-12T14:06:41.627Z,1.13
2022-08-12T14:09:17.414Z,1.17
2022-08-12T14:11:58.958Z,0.82
2022-08-12T14:14:31.812Z,0.90
2022-08-12T14:17:05.672Z,0.80
2022-08-12T14:19:39.285Z,1.02
2022-08-12T14:22:17.604Z,0.77
2022-08-12T14:24:44.407Z,0.77
2022-08-12T14:27:12.768Z,1.00
2022-08-12T14:30:05.684Z,0.80
2022-08-12T14:32:35.637Z,1.17
2022-08-12T14:35:09.287Z,1.10
2022-08-12T14:37:56.196Z,1.30
2022-08-12T14:40:28.139Z,0.80
2022-08-12T14:42:57.208Z,0.80
2022-08-12T14:45:45.326Z,0.73
2022-08-12T14:48:13.330Z,0.80
2022-08-12T14:51:02.821Z,0.98
2022-08-12T14:59:57.319Z,0.70
2022-08-12T15:02:20.886Z,1.08
2022-08-12T15:04:56.226Z,0.88
2022-08-12T15:07:33.490Z,1.00
2022-08-12T15:10:10.339Z,1.02
2022-08-12T15:12:40.480Z,1.50
2022-08-12T15:15:09.144Z,1.00
2022-08-12T15:17:38.704Z,1.00
2022-08-12T15:20:31.259Z,1.13
2022-08-12T15:22:55.758Z,1.00
2022-08-12T15:25:22.848Z,1.02
2022-08-12T15:28:05.411Z,0.80
2022-08-12T15:30:34.994Z,1.27
2022-08-12T15:33:12.825Z,1.10
2022-08-12T15:35:52.123Z,0.90
2022-08-12T15:38:27.527Z,1.10
2022-08-12T15:40:55.622Z,0.90
2022-08-12T15:43:51.458Z,1.90
2022-08-12T15:46:15.269Z,1.33
2022-08-12T15:48:46.898Z,1.02
2022-08-12T15:51:57.674Z,2.60
2022-08-12T15:54:33.612Z,0.93
2022-08-12T15:57:10.723Z,0.95
2022-08-12T16:00:00.198Z,1.13
2022-08-12T16:02:26.646Z,0.73
2022-08-12T16:04:55.129Z,1.00
2022-08-12T16:07:26.251Z,1.42
2022-08-12T16:10:05.500Z,0.90
2022-08-12T16:12:39.763Z,0.95
2022-08-12T16:15:07.448Z,1.10
2022-08-12T16:18:18.869Z,0.80
2022-08-12T16:20:33.078Z,1.10
2022-08-12T16:23:26.259Z,1.00
2022-08-12T16:26:05.265Z,1.00
2022-08-12T16:28:38.101Z,0.93
2022-08-12T16:31:05.727Z,1.60
2022-08-12T16:33:59.089Z,0.90
2022-08-12T16:36:43.993Z,1.40
2022-08-12T16:39:12.078Z,1.48
2022-08-12T16:41:39.701Z,1.55
2022-08-12T16:44:08.266Z,1.48
2022-08-12T16:46:41.303Z,1.70
2022-08-12T16:49:25.068Z,1.50
2022-08-12T16:51:52.546Z,1.08
2022-08-12T16:54:26.698Z,1.05
2022-08-12T16:57:05.695Z,1.15
2022-08-12T16:59:53.178Z,1.40
2022-08-12T17:02:34.131Z,1.15
2022-08-12T17:05:04.303Z,1.15
2022-08-12T17:07:36.820Z,1.40
2022-08-12T17:10:13.100Z,0.98
2022-08-12T17:12:40.276Z,0.88
2022-08-12T17:15:51.024Z,0.75
2022-08-12T17:18:39.438Z,1.08
2022-08-12T17:20:49.050Z,1.00
2022-08-12T17:23:17.996Z,0.90
2022-08-12T17:25:50.595Z,1.00
2022-08-12T17:28:18.480Z,0.95
2022-08-12T17:30:46.222Z,0.77
2022-08-12T17:33:25.083Z,0.80
2022-08-12T17:35:53.439Z,1.73
2022-08-12T17:38:21.265Z,1.55
2022-08-12T17:40:51.208Z,1.15
2022-08-12T17:43:56.269Z,0.98
2022-08-12T17:46:08.041Z,1.05
2022-08-12T17:48:55.363Z,1.10
2022-08-12T17:51:25.311Z,1.30
2022-08-12T17:54:05.753Z,1.25
2022-08-12T17:56:39.303Z,1.05
2022-08-12T17:59:07.710Z,1.10
2022-08-12T18:01:35.995Z,1.00
2022-08-12T18:04:21.688Z,0.90
2022-08-12T18:06:55.694Z,0.80
2022-08-12T18:09:24.266Z,2.10
2022-08-12T18:12:12.041Z,1.38
2022-08-12T18:14:41.360Z,1.65
2022-08-12T18:17:18.210Z,1.13
2022-08-12T18:20:05.114Z,1.35
2022-08-12T18:22:33.120Z,1.38
2022-08-12T18:26:13.036Z,1.10
2022-08-12T18:28:15.570Z,0.82
2022-08-12T18:30:52.452Z,0.98
2022-08-12T18:33:25.352Z,0.82
2022-08-12T18:35:55.616Z,1.08
2022-08-12T18:38:24.713Z,1.08
2022-08-12T18:41:21.424Z,0.98
2022-08-12T18:44:16.402Z,1.10
2022-08-12T18:47:01.673Z,0.95
2022-08-12T18:49:37.956Z,1.45
2022-08-12T18:52:08.456Z,1.70
2022-08-12T18:54:53.856Z,1.42
2022-08-12T18:58:06.019Z,1.20
2022-08-12T19:00:21.369Z,1.40
2022-08-12T19:02:50.848Z,1.58
2022-08-12T19:05:17.955Z,1.40
2022-08-12T19:08:01.587Z,1.75
2022-08-12T19:10:31.797Z,0.93
2022-08-12T19:13:36.664Z,0.95
2022-08-12T19:16:10.150Z,1.10
2022-08-12T19:18:40.519Z,1.45
2022-08-12T19:21:16.941Z,1.33
2022-08-12T19:24:07.581Z,1.58
2022-08-12T19:26:41.775Z,1.50
2022-08-12T19:29:11.047Z,1.63
2022-08-12T19:31:58.339Z,1.45
2022-08-12T19:38:02.498Z,2.47
2022-08-12T19:40:31.104Z,2.88
2022-08-12T19:43:01.921Z,1.60
2022-08-12T19:45:43.778Z,2.45
2022-08-12T19:48:18.485Z,2.30
2022-08-12T19:50:49.898Z,2.20
2022-08-12T19:53:24.866Z,1.60
2022-08-12T19:55:56.145Z,1.17
2022-08-12T19:58:26.884Z,1.55
2022-08-12T20:00:55.614Z,1.85
2022-08-12T20:03:38.583Z,1.20
2022-08-12T20:06:15.853Z,1.67
2022-08-12T20:08:53.848Z,1.98
2022-08-12T20:12:13.915Z,2.00
2022-08-12T20:14:18.589Z,2.10
2022-08-12T20:16:52.529Z,1.50
2022-08-12T20:19:23.519Z,1.42
2022-08-12T20:21:50.758Z,1.23
2022-08-12T20:24:19.211Z,1.60
2022-08-12T20:26:48.247Z,1.65
2022-08-12T20:29:16.568Z,1.83
2022-08-12T20:31:44.612Z,1.65
2022-08-12T20:34:12.422Z,1.42
2022-08-12T20:36:47.140Z,1.70
2022-08-12T20:39:52.730Z,1.50
2022-08-12T20:42:12.941Z,1.70
2022-08-12T20:44:42.529Z,1.77
2022-08-12T20:47:16.683Z,2.30
2022-08-12T20:49:55.950Z,1.80
2022-08-12T20:52:34.283Z,1.40
2022-08-12T20:55:04.419Z,1.30
2022-08-12T20:57:37.836Z,1.40
2022-08-12T21:00:14.537Z,1.38
2022-08-12T21:02:46.077Z,1.23
2022-08-12T21:06:09.785Z,1.30
2022-08-12T21:08:27.729Z,1.30
2022-08-12T21:10:59.032Z,2.67
2022-08-12T21:13:27.080Z,1.53
2022-08-12T21:15:59.770Z,1.30
2022-08-12T21:18:30.591Z,1.10
2022-08-12T21:20:59.368Z,1.07
2022-08-12T21:23:30.760Z,1.15
2022-08-12T21:26:01.231Z,1.10
2022-08-12T21:28:32.005Z,0.75
2022-08-12T21:32:36.084Z,1.17
2022-08-12T21:34:08.251Z,1.30
2022-08-12T21:36:49.532Z,1.13
2022-08-12T21:39:21.870Z,1.80
2022-08-12T21:41:52.334Z,1.42
2022-08-12T21:45:44.147Z,3.17
2022-08-12T21:47:21.053Z,1.50
2022-08-12T21:50:03.135Z,1.90
2022-08-12T21:52:41.073Z,1.50
2022-08-12T21:55:17.830Z,1.38
2022-08-12T21:57:54.920Z,1.50
2022-08-12T22:00:34.620Z,1.70
2022-08-12T22:04:03.259Z,1.50
2022-08-12T22:06:26.551Z,1.70
2022-08-12T22:09:16.670Z,1.40
2022-08-12T22:11:56.342Z,1.50
2022-08-12T22:14:30.250Z,1.27
2022-08-12T22:17:00.533Z,1.73
2022-08-12T22:19:28.227Z,1.15
2022-08-12T22:21:57.515Z,1.70
2022-08-12T22:24:29.975Z,1.40
2022-08-12T22:27:07.971Z,1.10
2022-08-12T22:30:05.632Z,1.42
2022-08-12T22:32:34.556Z,1.60
2022-08-12T22:35:24.034Z,1.63
2022-08-12T22:37:53.690Z,1.65
2022-08-12T22:40:23.787Z,1.60
2022-08-12T22:43:15.347Z,1.65
2022-08-12T22:46:01.800Z,1.43
2022-08-12T22:48:29.230Z,1.20
2022-08-12T22:50:59.100Z,1.20
2022-08-12T22:53:36.246Z,1.08
2022-08-12T22:56:07.000Z,1.17
2022-08-12T22:58:41.243Z,1.17
2022-08-12T23:01:13.799Z,1.40
2022-08-12T23:03:50.970Z,1.13
2022-08-12T23:06:31.766Z,1.33
2022-08-12T23:08:59.724Z,1.17
2022-08-12T23:11:36.245Z,1.10
2022-08-12T23:14:08.132Z,0.90
2022-08-12T23:16:47.447Z,1.02
2022-08-12T23:19:17.953Z,0.90
2022-08-12T23:22:06.513Z,0.80
2022-08-12T23:24:55.946Z,1.10
2022-08-12T23:27:51.703Z,1.30
2022-08-12T23:30:32.138Z,1.15
2022-08-12T23:35:54.074Z,1.05
2022-08-12T23:38:32.217Z,0.98
2022-08-12T23:41:04.570Z,1.10
2022-08-12T23:43:39.301Z,0.90
2022-08-12T23:46:09.966Z,1.02
2022-08-12T23:48:38.153Z,1.00
2022-08-12T23:51:22.300Z,0.90
2022-08-12T23:53:54.654Z,0.90
2022-08-12T23:56:23.926Z,1.15
2022-08-12T23:58:58.460Z,1.23
